Карточка аэропорта UAII

Внимание!
Информация на этой странице в стадии наполнения.
Если вы не увидели какой-то информации, или заметили неточность - пожалуйста сообщите нам!
Спасибо!
Команда RU-STAFF
Название аэропортаШымкент
Название аэропорта (англ.)Shymkent
Превышение1389 ft. (423.4 m.)
Координаты42°21.348', 69°28.734'
Высота перехода10000ft
Эшелон переходаFL120, QNH<733:FL130
Коды ответчика3430-3437, 3530-3537
Зона ОрВДШымкент РПИ (UAII)
Данные METARUAII 251900Z 14004MPS CAVOK 27/14 Q1005 NOSIG RMK QFE718/0958
Проноз погоды (TAF)UAII 251702Z 2518/2618 13003G08MPS 7000 SCT040 TX40/2610Z TN23/2523Z TEMPO 2518/2602 VRB01MPS FEW050CB BECMG 2602/2604 27003G08MPS TEMPO 2604/2615 32005G10MPS SCT050CB
NOTAMshow/hide NOTAM
AWOS   TABLE

Информация о ВПП

ВПП Длина ВПП (м.) Покрытие Курс ВПП Частота ILS
103300Железобетон106111.7
283300Железобетон286110.3

Диспетчерские позиции

Позывной Наименование органа УВД Частота
UAII_APPШымкент-Подход120.3
UAII_TWRШымкент Вышка125.9



Спутниковое изображение